Time;durP1;ratioP1;P1;durP2;ratioP2;P2;SDS_P1;SDS_P2;PMS_P1;PMS_P2;Temp;Humidity;BMP_temperature;BMP_pressure;BME280_temperature;BME280_humidity;BME280_pressure;Samples;Min_cycle;Max_cycle;Signal;HPM_P1;HPM_P2
2023/08/30 00:00:11;;;;;;;;;;;;;;;-147.27;100.00;65176.34;5103181;28;19937;-60
2023/08/30 00:02:37;;;;;;;;;;;;;;;-147.27;100.00;65176.34;5123946;28;19975;-61
2023/08/30 00:05:05;;;;;;;;;;;;;;;-147.27;100.00;65176.34;5117593;28;19938;-59
2023/08/30 00:07:30;;;;;;;;;;;;;;;-147.27;100.00;65176.34;5122639;28;19944;-59
2023/08/30 00:09:58;;;;;;;;;;;;;;;-147.27;100.00;65176.34;5118342;28;19920;-61
2023/08/30 00:12:24;;;;;;;;;;;;;;;-147.27;100.00;65176.34;5112968;28;19923;-62
2023/08/30 00:14:50;;;;;;;;;;;;;;;-147.27;100.00;65176.34;5118238;28;19900;-61
2023/08/30 00:17:16;;;;;;;;;;;;;;;-147.27;100.00;65176.34;5127085;28;19950;-61
2023/08/30 00:19:42;;;;;;;;;;;;;;;-147.27;100.00;65176.34;5118251;28;19916;-60
2023/08/30 00:22:07;;;;;;;;;;;;;;;-147.27;100.00;65176.34;5124087;28;19920;-61
2023/08/30 00:24:33;;;;;;;;;;;;;;;-147.27;100.00;65176.34;5117412;28;19923;-58
2023/08/30 00:26:58;;;;;;;;;;;;;;;-147.27;100.00;65176.34;5123672;28;19923;-61
2023/08/30 00:29:24;;;;;;;;;;;;;;;-147.27;100.00;65176.34;5117918;28;19955;-60
2023/08/30 00:31:49;;;;;;;;;;;;;;;-147.27;100.00;65176.34;5137368;27;19937;-60
2023/08/30 00:34:15;;;;;;;;;;;;;;;-147.27;100.00;65176.34;5118069;28;19975;-60
2023/08/30 00:36:40;;;;;;;;;;;;;;;-147.27;100.00;65176.34;5117755;28;19916;-62
2023/08/30 00:39:06;;;;;;;;;;;;;;;-147.27;100.00;65176.34;5117879;28;19922;-57
2023/08/30 00:41:31;;;;;;;;;;;;;;;-147.27;100.00;65176.34;5133792;28;19923;-60
2023/08/30 00:43:57;;;;;;;;;;;;;;;-147.27;100.00;65176.34;5133961;28;19976;-61
2023/08/30 00:46:22;;;;;;;;;;;;;;;-147.27;100.00;65176.34;5134012;28;19916;-60
2023/08/30 00:48:48;;;;;;;;;;;;;;;-147.27;100.00;65176.34;5112729;28;19946;-60
2023/08/30 00:51:13;;;;;;;;;;;;;;;-147.27;100.00;65176.34;5105608;28;19922;-60
2023/08/30 00:53:39;;;;;;;;;;;;;;;-147.27;100.00;65176.34;5107957;28;19942;-61
2023/08/30 00:56:05;;;;;;;;;;;;;;;-147.27;100.00;65176.34;5117438;28;19916;-61
2023/08/30 00:58:31;;;;;;;;;;;;;;;-147.27;100.00;65176.34;5127569;28;19962;-61
2023/08/30 01:00:57;;;;;;;;;;;;;;;-147.27;100.00;65176.34;5117355;28;19923;-61
2023/08/30 01:03:23;;;;;;;;;;;;;;;-147.27;100.00;65176.34;5140924;27;19916;-61
2023/08/30 01:05:49;;;;;;;;;;;;;;;-147.27;100.00;65176.34;5117193;28;19995;-61
2023/08/30 01:08:14;;;;;;;;;;;;;;;-147.27;100.00;65176.34;5140068;27;19916;-64
2023/08/30 01:10:46;;;;;;;;;;;;;;;-147.27;100.00;65176.34;5116256;28;19924;-61
2023/08/30 01:13:13;;;;;;;;;;;;;;;-147.27;100.00;65176.34;5117126;28;19942;-60
2023/08/30 01:15:40;;;;;;;;;;;;;;;-147.27;100.00;65176.34;5116991;28;19941;-60
2023/08/30 01:18:07;;;;;;;;;;;;;;;-147.27;100.00;65176.34;5120695;28;19923;-60
2023/08/30 01:20:35;;;;;;;;;;;;;;;-147.27;100.00;65176.34;5116771;28;19987;-60
2023/08/30 01:23:05;;;;;;;;;;;;;;;-147.27;100.00;65176.34;5116782;28;19927;-60
2023/08/30 01:25:47;;;;;;;;;;;;;;;-147.27;100.00;65176.34;5116735;28;19912;-59
2023/08/30 01:28:15;;;;;;;;;;;;;;;-147.27;100.00;65176.34;5116818;28;20382;-60
2023/08/30 01:30:42;;;;;;;;;;;;;;;-147.27;100.00;65176.34;5116670;28;19942;-59
2023/08/30 01:33:08;;;;;;;;;;;;;;;-147.27;100.00;65176.34;5124587;28;19955;-61
2023/08/30 01:35:36;;;;;;;;;;;;;;;-147.27;100.00;65176.34;5132839;28;19916;-60
2023/08/30 01:38:05;;;;;;;;;;;;;;;-147.27;100.00;65176.34;5142624;27;19918;-60
2023/08/30 01:40:37;;;;;;;;;;;;;;;-147.27;100.00;65176.34;5099220;28;19937;-60
2023/08/30 01:43:05;;;;;;;;;;;;;;;-147.27;100.00;65176.34;5116371;28;19916;-60
2023/08/30 01:45:32;;;;;;;;;;;;;;;-147.27;100.00;65176.34;5116581;28;19927;-61
2023/08/30 01:47:59;;;;;;;;;;;;;;;-147.27;100.00;65176.34;5124065;28;19915;-60
2023/08/30 01:50:26;;;;;;;;;;;;;;;-147.27;100.00;65176.34;5116405;28;19920;-61
2023/08/30 01:52:52;;;;;;;;;;;;;;;-147.27;100.00;65176.34;5116310;28;19979;-60
2023/08/30 01:55:20;;;;;;;;;;;;;;;-147.27;100.00;65176.34;5132621;28;19920;-61
2023/08/30 01:57:45;;;;;;;;;;;;;;;-147.27;100.00;65176.34;5120690;28;19912;-60
2023/08/30 02:00:11;;;;;;;;;;;;;;;-147.27;100.00;65176.34;5098460;28;19987;-61
2023/08/30 02:02:43;;;;;;;;;;;;;;;-147.27;100.00;65176.34;5118377;28;19915;-58
2023/08/30 02:05:09;;;;;;;;;;;;;;;-147.27;100.00;65176.34;5116223;28;19920;-61
2023/08/30 02:07:38;;;;;;;;;;;;;;;-147.27;100.00;65176.34;5098402;28;19952;-60
2023/08/30 02:10:09;;;;;;;;;;;;;;;-147.27;100.00;65176.34;5098357;28;19920;-60
2023/08/30 02:12:38;;;;;;;;;;;;;;;-147.27;100.00;65176.34;5106965;28;19963;-61
2023/08/30 02:15:06;;;;;;;;;;;;;;;-147.27;100.00;65176.34;5131878;28;19927;-59
2023/08/30 02:17:32;;;;;;;;;;;;;;;-147.27;100.00;65176.34;5133978;28;19923;-61
2023/08/30 02:19:57;;;;;;;;;;;;;;;-147.27;100.00;65176.34;5142476;27;19923;-59
2023/08/30 02:22:23;;;;;;;;;;;;;;;-147.27;100.00;65176.34;5127886;28;19916;-59
2023/08/30 02:24:48;;;;;;;;;;;;;;;-147.27;100.00;65176.34;5141161;27;19920;-58
2023/08/30 02:27:14;;;;;;;;;;;;;;;-147.27;100.00;65176.34;5115560;28;19924;-58
2023/08/30 02:29:39;;;;;;;;;;;;;;;-147.27;100.00;65176.34;5115887;28;19924;-57
2023/08/30 02:32:06;;;;;;;;;;;;;;;-147.27;100.00;65176.34;5117490;28;19979;-54
2023/08/30 02:34:32;;;;;;;;;;;;;;;-147.27;100.00;65176.34;5134438;27;19900;-59
2023/08/30 02:36:57;;;;;;;;;;;;;;;-147.27;100.00;65176.34;5115679;28;19946;-59
2023/08/30 02:39:23;;;;;;;;;;;;;;;-147.27;100.00;65176.34;5120296;28;19947;-59
2023/08/30 02:41:49;;;;;;;;;;;;;;;-147.27;100.00;65176.34;5117865;28;19916;-59
2023/08/30 02:44:14;;;;;;;;;;;;;;;-147.27;100.00;65176.34;5123882;28;19916;-59
2023/08/30 02:46:41;;;;;;;;;;;;;;;-147.27;100.00;65176.34;5131884;28;19947;-62
2023/08/30 02:49:09;;;;;;;;;;;;;;;-147.27;100.00;65176.34;5132847;28;19922;-58
2023/08/30 02:51:35;;;;;;;;;;;;;;;-147.27;100.00;65176.34;5105749;28;19916;-60
2023/08/30 02:54:00;;;;;;;;;;;;;;;-147.27;100.00;65176.34;5125535;28;19945;-61
2023/08/30 02:56:26;;;;;;;;;;;;;;;-147.27;100.00;65176.34;5117797;28;19923;-60
2023/08/30 02:58:51;;;;;;;;;;;;;;;-147.27;100.00;65176.34;5131771;28;19916;-62
2023/08/30 03:01:17;;;;;;;;;;;;;;;-147.27;100.00;65176.34;5097615;28;19916;-60
2023/08/30 03:03:42;;;;;;;;;;;;;;;-147.27;100.00;65176.34;5115288;28;19987;-63
2023/08/30 03:06:08;;;;;;;;;;;;;;;-147.27;100.00;65176.34;5115216;28;19975;-61
2023/08/30 03:08:33;;;;;;;;;;;;;;;-147.27;100.00;65176.34;5115010;28;20003;-60
2023/08/30 03:11:12;;;;;;;;;;;;;;;-147.27;100.00;65176.34;5131257;28;19928;-61
2023/08/30 03:13:42;;;;;;;;;;;;;;;-147.27;100.00;65176.34;5126106;28;19927;-61
2023/08/30 03:16:11;;;;;;;;;;;;;;;-147.27;100.00;65176.34;5097339;28;19920;-61
2023/08/30 03:18:38;;;;;;;;;;;;;;;-147.27;100.00;65176.34;5102996;28;19916;-61
2023/08/30 03:21:04;;;;;;;;;;;;;;;-147.27;100.00;65176.34;5115630;28;19976;-60
2023/08/30 03:23:31;;;;;;;;;;;;;;;-147.27;100.00;65176.34;5107179;28;19915;-59
2023/08/30 03:25:57;;;;;;;;;;;;;;;-147.27;100.00;65176.34;5131317;28;19923;-59
2023/08/30 03:28:23;;;;;;;;;;;;;;;-147.27;100.00;65176.34;5115212;28;19916;-58
2023/08/30 03:30:51;;;;;;;;;;;;;;;-147.27;100.00;65176.34;5114067;28;21279;-59
2023/08/30 03:33:17;;;;;;;;;;;;;;;-147.27;100.00;65176.34;5097191;28;19951;-60
2023/08/30 03:35:44;;;;;;;;;;;;;;;-147.27;100.00;65176.34;5119084;28;19916;-61
2023/08/30 03:38:09;;;;;;;;;;;;;;;-147.27;100.00;65176.34;5135349;28;19923;-60
2023/08/30 03:40:35;;;;;;;;;;;;;;;-147.27;100.00;65176.34;5114145;28;19927;-60
2023/08/30 03:43:01;;;;;;;;;;;;;;;-147.27;100.00;65176.34;5141676;27;19916;-59
2023/08/30 03:45:26;;;;;;;;;;;;;;;-147.27;100.00;65176.34;5128403;28;19942;-60
2023/08/30 03:47:51;;;;;;;;;;;;;;;-147.27;100.00;65176.34;5112142;28;19954;-61
2023/08/30 03:50:18;;;;;;;;;;;;;;;-147.27;100.00;65176.34;5128126;28;19920;-60
2023/08/30 03:52:43;;;;;;;;;;;;;;;-147.27;100.00;65176.34;5128349;28;19923;-63
2023/08/30 03:55:09;;;;;;;;;;;;;;;-147.27;100.00;65176.34;5101039;28;19939;-61
2023/08/30 03:57:34;;;;;;;;;;;;;;;-147.27;100.00;65176.34;5134874;28;19942;-60
2023/08/30 04:00:02;;;;;;;;;;;;;;;-147.27;100.00;65176.34;5107057;28;19923;-61
2023/08/30 04:02:28;;;;;;;;;;;;;;;-147.27;100.00;65176.34;5135169;28;19938;-60
2023/08/30 04:04:54;;;;;;;;;;;;;;;-147.27;100.00;65176.34;5118628;28;19920;-60
2023/08/30 04:07:20;;;;;;;;;;;;;;;-147.27;100.00;65176.34;5100711;28;19924;-61
2023/08/30 04:09:47;;;;;;;;;;;;;;;-147.27;100.00;65176.34;5093202;28;19928;-61
2023/08/30 04:12:13;;;;;;;;;;;;;;;-147.27;100.00;65176.34;5134404;28;19915;-61
2023/08/30 04:14:39;;;;;;;;;;;;;;;-147.27;100.00;65176.34;5101206;28;19916;-60
2023/08/30 04:17:05;;;;;;;;;;;;;;;-147.27;100.00;65176.34;5116959;28;19920;-61
2023/08/30 04:19:30;;;;;;;;;;;;;;;-147.27;100.00;65176.34;5123453;27;19926;-59
2023/08/30 04:21:56;;;;;;;;;;;;;;;-147.27;100.00;65176.34;5118144;28;19916;-61
2023/08/30 04:24:21;;;;;;;;;;;;;;;-147.27;100.00;65176.34;5126232;28;19916;-61
2023/08/30 04:26:51;;;;;;;;;;;;;;;-147.27;100.00;65176.34;5134449;28;19923;-61
2023/08/30 04:29:17;;;;;;;;;;;;;;;-147.27;100.00;65176.34;5133844;28;19920;-61
2023/08/30 04:31:43;;;;;;;;;;;;;;;-147.27;100.00;65176.34;5117724;28;19965;-61
2023/08/30 04:34:09;;;;;;;;;;;;;;;-147.27;100.00;65176.34;5135595;28;19964;-59
2023/08/30 04:36:35;;;;;;;;;;;;;;;-147.27;100.00;65176.34;5140465;27;19916;-60
2023/08/30 04:39:01;;;;;;;;;;;;;;;-147.27;100.00;65176.34;5133846;28;19945;-61
2023/08/30 04:41:27;;;;;;;;;;;;;;;-147.27;100.00;65176.34;5117848;28;19916;-62
2023/08/30 04:43:53;;;;;;;;;;;;;;;-147.27;100.00;65176.34;5133989;28;19935;-61
2023/08/30 04:46:19;;;;;;;;;;;;;;;-147.27;100.00;65176.34;5126403;28;19920;-60
2023/08/30 04:48:45;;;;;;;;;;;;;;;-147.27;100.00;65176.34;5099380;28;19945;-59
2023/08/30 04:51:10;;;;;;;;;;;;;;;-147.27;100.00;65176.34;5093044;28;19942;-60
2023/08/30 04:53:36;;;;;;;;;;;;;;;-147.27;100.00;65176.34;5117350;28;19938;-61
2023/08/30 04:56:10;;;;;;;;;;;;;;;-147.27;100.00;65176.34;5102475;28;19990;-60
2023/08/30 04:58:35;;;;;;;;;;;;;;;-147.27;100.00;65176.34;5091195;28;19938;-59
2023/08/30 05:01:02;;;;;;;;;;;;;;;-147.27;100.00;65176.34;5119377;28;19916;-60
2023/08/30 05:03:27;;;;;;;;;;;;;;;-147.27;100.00;65176.34;5135573;28;19916;-59
2023/08/30 05:05:53;;;;;;;;;;;;;;;-147.27;100.00;65176.34;5116782;28;19923;-59
2023/08/30 05:08:18;;;;;;;;;;;;;;;-147.27;100.00;65176.34;5116215;28;19920;-58
2023/08/30 05:10:46;;;;;;;;;;;;;;;-147.27;100.00;65176.34;5094090;28;19921;-60
2023/08/30 05:13:12;;;;;;;;;;;;;;;-147.27;100.00;65176.34;5133034;28;19915;-60
2023/08/30 05:15:37;;;;;;;;;;;;;;;-147.27;100.00;65176.34;5121232;28;19927;-55
2023/08/30 05:18:03;;;;;;;;;;;;;;;-147.27;100.00;65176.34;5133153;28;19916;-59
2023/08/30 05:20:29;;;;;;;;;;;;;;;-147.27;100.00;65176.34;5113926;28;19942;-56
2023/08/30 05:22:55;;;;;;;;;;;;;;;-147.27;100.00;65176.34;5116934;28;19916;-58
2023/08/30 05:25:22;;;;;;;;;;;;;;;-147.27;100.00;65176.34;5136779;27;19924;-55
2023/08/30 05:27:48;;;;;;;;;;;;;;;-147.27;100.00;65176.34;5099154;28;19961;-58
2023/08/30 05:30:13;;;;;;;;;;;;;;;-147.27;100.00;65176.34;5132506;28;19987;-59
2023/08/30 05:32:39;;;;;;;;;;;;;;;-147.27;100.00;65176.34;5133174;28;19912;-59
2023/08/30 05:35:27;;;;;;;;;;;;;;;-147.27;100.00;65176.34;5142075;27;19938;-59
2023/08/30 05:38:09;;;;;;;;;;;;;;;-147.27;100.00;65176.34;5092184;28;19942;-60
2023/08/30 05:40:45;;;;;;;;;;;;;;;-147.27;100.00;65176.34;5089840;28;19916;-60
2023/08/30 05:43:10;;;;;;;;;;;;;;;-147.27;100.00;65176.34;5132265;28;20342;-60
2023/08/30 05:45:37;;;;;;;;;;;;;;;-147.27;100.00;65176.34;5116209;28;19976;-59
2023/08/30 05:48:03;;;;;;;;;;;;;;;-147.27;100.00;65176.34;5116303;28;19920;-60
2023/08/30 05:50:29;;;;;;;;;;;;;;;-147.27;100.00;65176.34;5128533;28;19943;-59
2023/08/30 05:52:55;;;;;;;;;;;;;;;-147.27;100.00;65176.34;5127024;28;19916;-58
2023/08/30 05:55:21;;;;;;;;;;;;;;;-147.27;100.00;65176.34;5137895;27;19949;-54
2023/08/30 05:57:47;;;;;;;;;;;;;;;-147.27;100.00;65176.34;5110699;28;19916;-57
2023/08/30 06:00:13;;;;;;;;;;;;;;;-147.27;100.00;65176.34;5130427;28;19983;-61
2023/08/30 06:02:41;;;;;;;;;;;;;;;-147.27;100.00;65176.34;5116297;28;19919;-59
2023/08/30 06:05:07;;;;;;;;;;;;;;;-147.27;100.00;65176.34;5115552;28;19916;-58
2023/08/30 06:07:32;;;;;;;;;;;;;;;-147.27;100.00;65176.34;5111221;28;19927;-60
2023/08/30 06:09:58;;;;;;;;;;;;;;;-147.27;100.00;65176.34;5115911;28;19983;-59
2023/08/30 06:12:25;;;;;;;;;;;;;;;-147.27;100.00;65176.34;5111021;28;19916;-61
2023/08/30 06:14:52;;;;;;;;;;;;;;;-147.27;100.00;65176.34;5115239;28;19916;-60
2023/08/30 06:17:18;;;;;;;;;;;;;;;-147.27;100.00;65176.34;5115546;28;19979;-57
2023/08/30 06:19:44;;;;;;;;;;;;;;;-147.27;100.00;65176.34;5116056;28;19912;-60
2023/08/30 06:22:10;;;;;;;;;;;;;;;-147.27;100.00;65176.34;5116470;28;19916;-59
2023/08/30 06:24:35;;;;;;;;;;;;;;;-147.27;100.00;65176.34;5115924;28;19916;-58
2023/08/30 06:27:01;;;;;;;;;;;;;;;-147.27;100.00;65176.34;5116606;28;19920;-58
2023/08/30 06:29:26;;;;;;;;;;;;;;;-147.27;100.00;65176.34;5115816;28;19920;-59
2023/08/30 06:31:52;;;;;;;;;;;;;;;-147.27;100.00;65176.34;5112999;28;20010;-57
2023/08/30 06:34:17;;;;;;;;;;;;;;;-147.27;100.00;65176.34;5102757;28;19923;-60
2023/08/30 06:36:43;;;;;;;;;;;;;;;-147.27;100.00;65176.34;5102014;28;19916;-63
2023/08/30 06:39:08;;;;;;;;;;;;;;;-147.27;100.00;65176.34;5131590;28;19952;-62
2023/08/30 06:41:34;;;;;;;;;;;;;;;-147.27;100.00;65176.34;5110411;28;19917;-62
2023/08/30 06:43:59;;;;;;;;;;;;;;;-147.27;100.00;65176.34;5098335;28;19924;-63
2023/08/30 06:46:25;;;;;;;;;;;;;;;-147.27;100.00;65176.34;5105081;28;19955;-63
2023/08/30 06:48:50;;;;;;;;;;;;;;;-147.27;100.00;65176.34;5110420;28;19916;-63
2023/08/30 06:51:16;;;;;;;;;;;;;;;-147.27;100.00;65176.34;5130032;28;19999;-63
2023/08/30 06:53:41;;;;;;;;;;;;;;;-147.27;100.00;65176.34;5113141;28;19920;-65
2023/08/30 06:56:07;;;;;;;;;;;;;;;-147.27;100.00;65176.34;5115431;28;19916;-64
2023/08/30 06:58:32;;;;;;;;;;;;;;;-147.27;100.00;65176.34;5116623;28;19947;-64
2023/08/30 07:00:58;;;;;;;;;;;;;;;-147.27;100.00;65176.34;5113904;28;19915;-64
2023/08/30 07:03:24;;;;;;;;;;;;;;;-147.27;100.00;65176.34;5113321;28;19966;-67
2023/08/30 07:05:53;;;;;;;;;;;;;;;-147.27;100.00;65176.34;5104667;28;19920;-67
2023/08/30 07:08:18;;;;;;;;;;;;;;;-147.27;100.00;65176.34;5106840;28;19916;-67
2023/08/30 07:10:44;;;;;;;;;;;;;;;-147.27;100.00;65176.34;5118486;28;19927;-68
2023/08/30 07:13:11;;;;;;;;;;;;;;;-147.27;100.00;65176.34;5119491;28;19916;-68
2023/08/30 07:15:40;;;;;;;;;;;;;;;-147.27;100.00;65176.34;5119351;28;19935;-68
2023/08/30 07:18:06;;;;;;;;;;;;;;;-147.27;100.00;65176.34;5130089;28;19922;-67
2023/08/30 07:20:32;;;;;;;;;;;;;;;-147.27;100.00;65176.34;5119021;28;19916;-66
2023/08/30 07:22:58;;;;;;;;;;;;;;;-147.27;100.00;65176.34;5118202;28;19927;-67
2023/08/30 07:25:24;;;;;;;;;;;;;;;-147.27;100.00;65176.34;5116827;28;19931;-67
2023/08/30 07:27:50;;;;;;;;;;;;;;;-147.27;100.00;65176.34;5125294;28;19919;-66
2023/08/30 07:30:15;;;;;;;;;;;;;;;-147.27;100.00;65176.34;5116935;28;19924;-66
2023/08/30 07:32:42;;;;;;;;;;;;;;;-147.27;100.00;65176.34;5117162;28;19916;-66
2023/08/30 07:35:07;;;;;;;;;;;;;;;-147.27;100.00;65176.34;5108768;28;19912;-64
2023/08/30 07:37:34;;;;;;;;;;;;;;;-147.27;100.00;65176.34;5117117;28;19934;-66
2023/08/30 07:39:59;;;;;;;;;;;;;;;-147.27;100.00;65176.34;5118568;28;19924;-66
2023/08/30 07:42:24;;;;;;;;;;;;;;;-147.27;100.00;65176.34;5118531;28;19967;-65
2023/08/30 07:44:50;;;;;;;;;;;;;;;-147.27;100.00;65176.34;5120007;28;20010;-67
2023/08/30 07:47:15;;;;;;;;;;;;;;;-147.27;100.00;65176.34;5107807;28;19916;-66
2023/08/30 07:49:41;;;;;;;;;;;;;;;-147.27;100.00;65176.34;5118291;28;19920;-67
2023/08/30 07:52:10;;;;;;;;;;;;;;;-147.27;100.00;65176.34;5110749;28;19916;-66
2023/08/30 07:54:37;;;;;;;;;;;;;;;-147.27;100.00;65176.34;5114011;28;19916;-66
2023/08/30 07:57:03;;;;;;;;;;;;;;;-147.27;100.00;65176.34;5118144;28;19942;-65
2023/08/30 07:59:29;;;;;;;;;;;;;;;-147.27;100.00;65176.34;5118198;28;19920;-65
2023/08/30 08:01:55;;;;;;;;;;;;;;;-147.27;100.00;65176.34;5118414;28;19916;-66
2023/08/30 08:04:21;;;;;;;;;;;;;;;-147.27;100.00;65176.34;5118191;28;20114;-66
2023/08/30 08:06:46;;;;;;;;;;;;;;;-147.27;100.00;65176.34;5132782;28;19923;-66
2023/08/30 08:09:12;;;;;;;;;;;;;;;-147.27;100.00;65176.34;5122091;28;19944;-66
2023/08/30 08:11:43;;;;;;;;;;;;;;;-147.27;100.00;65176.34;5100703;28;20129;-66
2023/08/30 08:14:09;;;;;;;;;;;;;;;-147.27;100.00;65176.34;5118072;28;19920;-66
2023/08/30 08:16:35;;;;;;;;;;;;;;;-147.27;100.00;65176.34;5120086;28;19928;-67
2023/08/30 08:19:01;;;;;;;;;;;;;;;-147.27;100.00;65176.34;5122464;28;19927;-66
2023/08/30 08:21:27;;;;;;;;;;;;;;;-147.27;100.00;65176.34;5135911;27;19922;-67
2023/08/30 08:23:52;;;;;;;;;;;;;;;-147.27;100.00;65176.34;5122584;28;19916;-66
2023/08/30 08:26:18;;;;;;;;;;;;;;;-147.27;100.00;65176.34;5117628;28;19926;-66
2023/08/30 08:28:44;;;;;;;;;;;;;;;-147.27;100.00;65176.34;5120998;28;20067;-67
2023/08/30 08:31:09;;;;;;;;;;;;;;;-147.27;100.00;65176.34;5117779;28;19920;-65
2023/08/30 08:33:35;;;;;;;;;;;;;;;-147.27;100.00;65176.34;5100002;28;19923;-66
2023/08/30 08:36:01;;;;;;;;;;;;;;;-147.27;100.00;65176.34;5117762;28;19923;-66
2023/08/30 08:38:26;;;;;;;;;;;;;;;-147.27;100.00;65176.34;5117678;28;19916;-66
2023/08/30 08:41:00;;;;;;;;;;;;;;;-147.27;100.00;65176.34;5117757;28;19920;-66
2023/08/30 08:43:27;;;;;;;;;;;;;;;-147.27;100.00;65176.34;5120726;28;19923;-66
2023/08/30 08:45:54;;;;;;;;;;;;;;;-147.27;100.00;65176.34;5117483;28;19916;-66
2023/08/30 08:48:20;;;;;;;;;;;;;;;-147.27;100.00;65176.34;5117492;28;19927;-66
2023/08/30 08:50:46;;;;;;;;;;;;;;;-147.27;100.00;65176.34;5133619;28;19920;-65
2023/08/30 08:53:12;;;;;;;;;;;;;;;-147.27;100.00;65176.34;5116998;28;19962;-66
2023/08/30 08:55:40;;;;;;;;;;;;;;;-147.27;100.00;65176.34;5117496;28;19935;-66
2023/08/30 08:58:05;;;;;;;;;;;;;;;-147.27;100.00;65176.34;5117279;28;19916;-67
2023/08/30 09:00:31;;;;;;;;;;;;;;;-147.27;100.00;65176.34;5117282;28;19941;-66
2023/08/30 09:02:57;;;;;;;;;;;;;;;-147.27;100.00;65176.34;5127891;28;19916;-66
2023/08/30 09:05:22;;;;;;;;;;;;;;;-147.27;100.00;65176.34;5117204;28;19916;-66
2023/08/30 09:07:48;;;;;;;;;;;;;;;-147.27;100.00;65176.34;5120957;28;19938;-66
2023/08/30 09:10:14;;;;;;;;;;;;;;;-147.27;100.00;65176.34;5116987;28;19930;-66
2023/08/30 09:12:39;;;;;;;;;;;;;;;-147.27;100.00;65176.34;5117112;28;19920;-67
2023/08/30 09:15:06;;;;;;;;;;;;;;;-147.27;100.00;65176.34;5116975;28;19916;-66
2023/08/30 09:17:37;;;;;;;;;;;;;;;-147.27;100.00;65176.34;5114224;28;19920;-67
2023/08/30 09:20:09;;;;;;;;;;;;;;;-147.27;100.00;65176.34;5107331;28;19980;-67
2023/08/30 09:22:36;;;;;;;;;;;;;;;-147.27;100.00;65176.34;5121097;28;19932;-66
2023/08/30 09:25:01;;;;;;;;;;;;;;;-147.27;100.00;65176.34;5116561;28;19912;-66
2023/08/30 09:27:33;;;;;;;;;;;;;;;-147.27;100.00;65176.34;5119210;28;19919;-66
2023/08/30 09:29:59;;;;;;;;;;;;;;;-147.27;100.00;65176.34;5124259;28;19966;-66
2023/08/30 09:32:24;;;;;;;;;;;;;;;-147.27;100.00;65176.34;5116156;28;19915;-66
2023/08/30 09:34:50;;;;;;;;;;;;;;;-147.27;100.00;65176.34;5116469;28;19916;-65
2023/08/30 09:37:22;;;;;;;;;;;;;;;-147.27;100.00;65176.34;5126201;28;19966;-66
2023/08/30 09:39:49;;;;;;;;;;;;;;;-147.27;100.00;65176.34;5123175;28;19935;-66
2023/08/30 09:42:16;;;;;;;;;;;;;;;-147.27;100.00;65176.34;5116195;28;19915;-64
2023/08/30 09:44:41;;;;;;;;;;;;;;;-147.27;100.00;65176.34;5116335;28;19938;-65
2023/08/30 09:47:07;;;;;;;;;;;;;;;-147.27;100.00;65176.34;5116164;28;19915;-65
2023/08/30 09:49:38;;;;;;;;;;;;;;;-147.27;100.00;65176.34;5120590;28;19931;-65
2023/08/30 09:52:06;;;;;;;;;;;;;;;-147.27;100.00;65176.34;5116130;28;19912;-65
2023/08/30 09:54:33;;;;;;;;;;;;;;;-147.27;100.00;65176.34;5115957;28;19916;-65
2023/08/30 09:56:59;;;;;;;;;;;;;;;-147.27;100.00;65176.34;5116019;28;19994;-65
2023/08/30 09:59:25;;;;;;;;;;;;;;;-147.27;100.00;65176.34;5116879;28;19923;-65
2023/08/30 10:01:52;;;;;;;;;;;;;;;-147.27;100.00;65176.34;5115972;28;19916;-65
2023/08/30 10:04:19;;;;;;;;;;;;;;;-147.27;100.00;65176.34;5108156;28;19923;-64
2023/08/30 10:06:45;;;;;;;;;;;;;;;-147.27;100.00;65176.34;5116128;28;19916;-64
2023/08/30 10:09:10;;;;;;;;;;;;;;;-147.27;100.00;65176.34;5126976;28;19912;-64
2023/08/30 10:11:37;;;;;;;;;;;;;;;-147.27;100.00;65176.34;5110930;28;19916;-64
2023/08/30 10:14:04;;;;;;;;;;;;;;;-147.27;100.00;65176.34;5126092;28;19916;-64
2023/08/30 10:16:34;;;;;;;;;;;;;;;-147.27;100.00;65176.34;5115673;28;19920;-64
2023/08/30 10:19:02;;;;;;;;;;;;;;;-147.27;100.00;65176.34;5115667;28;19916;-63
2023/08/30 10:21:29;;;;;;;;;;;;;;;-147.27;100.00;65176.34;5115893;28;19916;-63
2023/08/30 10:23:56;;;;;;;;;;;;;;;-147.27;100.00;65176.34;5128032;28;19919;-63
2023/08/30 10:26:26;;;;;;;;;;;;;;;-147.27;100.00;65176.34;5119281;28;19958;-64
2023/08/30 10:28:55;;;;;;;;;;;;;;;-147.27;100.00;65176.34;5124388;28;19916;-64
2023/08/30 10:31:20;;;;;;;;;;;;;;;-147.27;100.00;65176.34;5115213;28;19931;-64
2023/08/30 10:33:47;;;;;;;;;;;;;;;-147.27;100.00;65176.34;5124747;28;19979;-63
2023/08/30 10:36:12;;;;;;;;;;;;;;;-147.27;100.00;65176.34;5116977;28;19916;-63
2023/08/30 10:38:40;;;;;;;;;;;;;;;-147.27;100.00;65176.34;5121089;28;19991;-63
2023/08/30 10:41:06;;;;;;;;;;;;;;;-147.27;100.00;65176.34;5115296;28;19916;-63
2023/08/30 10:43:33;;;;;;;;;;;;;;;-147.27;100.00;65176.34;5115123;28;19912;-64
2023/08/30 10:46:01;;;;;;;;;;;;;;;-147.27;100.00;65176.34;5115095;28;19927;-63
2023/08/30 10:48:33;;;;;;;;;;;;;;;-147.27;100.00;65176.34;5115144;28;19923;-63
2023/08/30 10:50:59;;;;;;;;;;;;;;;-147.27;100.00;65176.34;5114910;28;19924;-63
2023/08/30 10:53:28;;;;;;;;;;;;;;;-147.27;100.00;65176.34;5111159;28;19923;-64
2023/08/30 10:56:07;;;;;;;;;;;;;;;-147.27;100.00;65176.34;5105550;28;19952;-63
2023/08/30 10:58:38;;;;;;;;;;;;;;;-147.27;100.00;65176.34;5115055;28;19973;-63
2023/08/30 11:01:04;;;;;;;;;;;;;;;-147.27;100.00;65176.34;5097303;28;19947;-63
2023/08/30 11:03:30;;;;;;;;;;;;;;;-147.27;100.00;65176.34;5119315;28;19923;-62
2023/08/30 11:05:56;;;;;;;;;;;;;;;-147.27;100.00;65176.34;5115166;28;19944;-63
2023/08/30 11:08:22;;;;;;;;;;;;;;;-147.27;100.00;65176.34;5115983;28;19927;-63
2023/08/30 11:10:47;;;;;;;;;;;;;;;-147.27;100.00;65176.34;5124958;28;19920;-62
2023/08/30 11:13:14;;;;;;;;;;;;;;;-147.27;100.00;65176.34;5115081;28;19915;-63
2023/08/30 11:15:40;;;;;;;;;;;;;;;-147.27;100.00;65176.34;5115079;28;19920;-63
2023/08/30 11:18:06;;;;;;;;;;;;;;;-147.27;100.00;65176.34;5113093;28;19924;-62
2023/08/30 11:20:31;;;;;;;;;;;;;;;-147.27;100.00;65176.34;5116729;28;19938;-64
2023/08/30 11:22:57;;;;;;;;;;;;;;;-147.27;100.00;65176.34;5116457;28;19920;-64
2023/08/30 11:25:22;;;;;;;;;;;;;;;-147.27;100.00;65176.34;5119836;28;19939;-63
2023/08/30 11:27:49;;;;;;;;;;;;;;;-147.27;100.00;65176.34;5114901;28;19912;-63
2023/08/30 11:30:14;;;;;;;;;;;;;;;-147.27;100.00;65176.34;5114809;28;19920;-63
2023/08/30 11:32:41;;;;;;;;;;;;;;;-147.27;100.00;65176.34;5114896;28;19920;-63
2023/08/30 11:35:07;;;;;;;;;;;;;;;-147.27;100.00;65176.34;5114864;28;19973;-63
2023/08/30 11:37:32;;;;;;;;;;;;;;;-147.27;100.00;65176.34;5114898;28;19920;-63
2023/08/30 11:39:59;;;;;;;;;;;;;;;-147.27;100.00;65176.34;5125475;28;19987;-63
2023/08/30 11:42:25;;;;;;;;;;;;;;;-147.27;100.00;65176.34;5114586;28;19915;-62
2023/08/30 11:44:51;;;;;;;;;;;;;;;-147.27;100.00;65176.34;5115092;28;19916;-62
2023/08/30 11:47:22;;;;;;;;;;;;;;;-147.27;100.00;65176.34;5114703;28;19916;-63
2023/08/30 11:49:49;;;;;;;;;;;;;;;-147.27;100.00;65176.34;5122328;28;19923;-63
2023/08/30 11:52:16;;;;;;;;;;;;;;;-147.27;100.00;65176.34;5114751;28;19916;-63
2023/08/30 11:54:41;;;;;;;;;;;;;;;-147.27;100.00;65176.34;5115073;28;19916;-63
2023/08/30 11:57:08;;;;;;;;;;;;;;;-147.27;100.00;65176.34;5118357;28;19923;-64
2023/08/30 11:59:34;;;;;;;;;;;;;;;-147.27;100.00;65176.34;5122880;28;19923;-63
2023/08/30 12:02:00;;;;;;;;;;;;;;;-147.27;100.00;65176.34;5118257;28;19927;-62
2023/08/30 12:04:25;;;;;;;;;;;;;;;-147.27;100.00;65176.34;5126573;28;19915;-62
2023/08/30 12:06:52;;;;;;;;;;;;;;;-147.27;100.00;65176.34;5118383;28;19916;-62
2023/08/30 12:09:21;;;;;;;;;;;;;;;-147.27;100.00;65176.34;5118022;28;19945;-62
2023/08/30 12:11:47;;;;;;;;;;;;;;;-147.27;100.00;65176.34;5118334;28;19916;-62
2023/08/30 12:14:13;;;;;;;;;;;;;;;-147.27;100.00;65176.34;5118232;28;19965;-62